sensor_id;sensor_type;location;lat;lon;timestamp;pressure;altitude;pressure_sealevel;temperature;humidity
59767;BME280;46248;58.364;25.582;2023-03-04T00:02:34;98289.06;;;-0.53;96.55
59767;BME280;46248;58.364;25.582;2023-03-04T00:05:57;98313.06;;;-0.34;96.51
59767;BME280;46248;58.364;25.582;2023-03-04T00:09:22;98266.84;;;-0.54;96.28
59767;BME280;46248;58.364;25.582;2023-03-04T00:12:45;98254.94;;;-0.57;95.70
59767;BME280;46248;58.364;25.582;2023-03-04T00:16:09;98276.47;;;-0.39;95.90
59767;BME280;46248;58.364;25.582;2023-03-04T00:19:35;98265.31;;;-0.39;96.01
59767;BME280;46248;58.364;25.582;2023-03-04T00:22:59;98258.38;;;-0.37;96.06
59767;BME280;46248;58.364;25.582;2023-03-04T00:26:22;98247.31;;;-0.39;96.00
59767;BME280;46248;58.364;25.582;2023-03-04T00:29:46;98230.31;;;-0.42;95.44
59767;BME280;46248;58.364;25.582;2023-03-04T00:33:11;98219.25;;;-0.44;96.57
59767;BME280;46248;58.364;25.582;2023-03-04T00:36:37;98209.09;;;-0.47;97.16
59767;BME280;46248;58.364;25.582;2023-03-04T00:40:01;98192.03;;;-0.48;97.57
59767;BME280;46248;58.364;25.582;2023-03-04T00:43:26;98172.59;;;-0.55;97.94
59767;BME280;46248;58.364;25.582;2023-03-04T00:46:50;98169.03;;;-0.51;98.96
59767;BME280;46248;58.364;25.582;2023-03-04T00:50:14;98158.00;;;-0.55;98.61
59767;BME280;46248;58.364;25.582;2023-03-04T00:53:40;98150.38;;;-0.56;98.96
59767;BME280;46248;58.364;25.582;2023-03-04T00:57:05;98126.63;;;-0.61;99.43
59767;BME280;46248;58.364;25.582;2023-03-04T01:00:29;98123.34;;;-0.65;100.00
59767;BME280;46248;58.364;25.582;2023-03-04T01:03:54;98105.50;;;-0.68;100.00
59767;BME280;46248;58.364;25.582;2023-03-04T01:07:19;98096.25;;;-0.72;100.00
59767;BME280;46248;58.364;25.582;2023-03-04T01:10:47;98090.31;;;-0.73;100.00
59767;BME280;46248;58.364;25.582;2023-03-04T01:14:11;98087.97;;;-0.79;100.00
59767;BME280;46248;58.364;25.582;2023-03-04T01:17:36;98078.69;;;-0.81;100.00
59767;BME280;46248;58.364;25.582;2023-03-04T01:21:01;98071.13;;;-0.84;100.00
59767;BME280;46248;58.364;25.582;2023-03-04T01:24:27;98051.81;;;-0.93;100.00
59767;BME280;46248;58.364;25.582;2023-03-04T01:27:55;98046.72;;;-0.95;100.00
59767;BME280;46248;58.364;25.582;2023-03-04T01:31:19;98020.81;;;-1.09;100.00
59767;BME280;46248;58.364;25.582;2023-03-04T01:34:43;98033.41;;;-1.03;100.00
59767;BME280;46248;58.364;25.582;2023-03-04T01:38:09;98008.00;;;-1.09;100.00
59767;BME280;46248;58.364;25.582;2023-03-04T01:41:34;98011.09;;;-1.02;100.00
59767;BME280;46248;58.364;25.582;2023-03-04T01:45:02;97994.22;;;-1.08;100.00
59767;BME280;46248;58.364;25.582;2023-03-04T01:48:31;97993.41;;;-1.08;100.00
59767;BME280;46248;58.364;25.582;2023-03-04T01:51:58;97949.66;;;-1.26;100.00
59767;BME280;46248;58.364;25.582;2023-03-04T01:55:24;97972.91;;;-1.10;100.00
59767;BME280;46248;58.364;25.582;2023-03-04T01:59:10;97977.16;;;-1.09;100.00
59767;BME280;46248;58.364;25.582;2023-03-04T02:02:38;97964.38;;;-1.10;100.00
59767;BME280;46248;58.364;25.582;2023-03-04T02:06:04;97958.56;;;-1.14;100.00
59767;BME280;46248;58.364;25.582;2023-03-04T02:09:31;97949.94;;;-1.13;100.00
59767;BME280;46248;58.364;25.582;2023-03-04T02:12:59;97898.75;;;-1.35;100.00
59767;BME280;46248;58.364;25.582;2023-03-04T02:16:26;97928.63;;;-1.15;100.00
59767;BME280;46248;58.364;25.582;2023-03-04T02:19:57;97922.66;;;-1.16;100.00
59767;BME280;46248;58.364;25.582;2023-03-04T02:23:32;97910.09;;;-1.22;100.00
59767;BME280;46248;58.364;25.582;2023-03-04T02:27:02;97909.41;;;-1.25;100.00
59767;BME280;46248;58.364;25.582;2023-03-04T02:30:28;97894.16;;;-1.28;100.00
59767;BME280;46248;58.364;25.582;2023-03-04T02:33:55;97903.94;;;-1.18;100.00
59767;BME280;46248;58.364;25.582;2023-03-04T02:37:21;97898.09;;;-1.21;100.00
59767;BME280;46248;58.364;25.582;2023-03-04T02:40:50;97889.72;;;-1.25;100.00
59767;BME280;46248;58.364;25.582;2023-03-04T02:44:21;97888.09;;;-1.27;100.00
59767;BME280;46248;58.364;25.582;2023-03-04T02:47:49;97880.06;;;-1.39;100.00
59767;BME280;46248;58.364;25.582;2023-03-04T02:51:14;97877.16;;;-1.31;100.00
59767;BME280;46248;58.364;25.582;2023-03-04T02:54:40;97881.41;;;-1.30;100.00
59767;BME280;46248;58.364;25.582;2023-03-04T02:58:06;97868.84;;;-1.36;100.00
59767;BME280;46248;58.364;25.582;2023-03-04T03:01:32;97875.34;;;-1.29;100.00
59767;BME280;46248;58.364;25.582;2023-03-04T03:04:58;97859.53;;;-1.39;100.00
59767;BME280;46248;58.364;25.582;2023-03-04T03:08:24;97871.72;;;-1.25;100.00
59767;BME280;46248;58.364;25.582;2023-03-04T03:11:49;97868.28;;;-1.24;100.00
59767;BME280;46248;58.364;25.582;2023-03-04T03:15:15;97864.72;;;-1.21;100.00
59767;BME280;46248;58.364;25.582;2023-03-04T03:18:43;97870.63;;;-1.19;100.00
59767;BME280;46248;58.364;25.582;2023-03-04T03:22:09;97861.25;;;-1.20;100.00
59767;BME280;46248;58.364;25.582;2023-03-04T03:25:34;97857.88;;;-1.21;100.00
59767;BME280;46248;58.364;25.582;2023-03-04T03:28:58;97850.03;;;-1.18;100.00
59767;BME280;46248;58.364;25.582;2023-03-04T03:32:24;97854.44;;;-1.21;100.00
59767;BME280;46248;58.364;25.582;2023-03-04T03:35:52;97859.44;;;-1.18;100.00
59767;BME280;46248;58.364;25.582;2023-03-04T03:39:18;97849.94;;;-1.16;100.00
59767;BME280;46248;58.364;25.582;2023-03-04T03:42:44;97842.53;;;-1.22;100.00
59767;BME280;46248;58.364;25.582;2023-03-04T03:46:08;97844.03;;;-1.18;100.00
59767;BME280;46248;58.364;25.582;2023-03-04T03:49:33;97843.28;;;-1.20;100.00
59767;BME280;46248;58.364;25.582;2023-03-04T03:53:00;97844.91;;;-1.18;100.00
59767;BME280;46248;58.364;25.582;2023-03-04T03:56:28;97833.75;;;-1.18;100.00
59767;BME280;46248;58.364;25.582;2023-03-04T03:59:54;97833.75;;;-1.18;100.00
59767;BME280;46248;58.364;25.582;2023-03-04T04:03:20;97838.75;;;-1.15;100.00
59767;BME280;46248;58.364;25.582;2023-03-04T04:06:46;97830.31;;;-1.17;100.00
59767;BME280;46248;58.364;25.582;2023-03-04T04:10:13;97822.00;;;-1.22;100.00
59767;BME280;46248;58.364;25.582;2023-03-04T04:13:37;97814.22;;;-1.21;100.00
59767;BME280;46248;58.364;25.582;2023-03-04T04:17:02;97823.44;;;-1.17;100.00
59767;BME280;46248;58.364;25.582;2023-03-04T04:20:27;97824.34;;;-1.18;100.00
59767;BME280;46248;58.364;25.582;2023-03-04T04:23:53;97819.41;;;-1.22;100.00
59767;BME280;46248;58.364;25.582;2023-03-04T04:27:19;97823.63;;;-1.21;100.00
59767;BME280;46248;58.364;25.582;2023-03-04T04:30:44;97792.19;;;-1.44;100.00
59767;BME280;46248;58.364;25.582;2023-03-04T04:34:08;97826.50;;;-1.27;100.00
59767;BME280;46248;58.364;25.582;2023-03-04T04:37:34;97816.22;;;-1.27;100.00
59767;BME280;46248;58.364;25.582;2023-03-04T04:41:00;97812.16;;;-1.31;100.00
59767;BME280;46248;58.364;25.582;2023-03-04T04:44:26;97808.59;;;-1.29;100.00
59767;BME280;46248;58.364;25.582;2023-03-04T04:47:51;97812.09;;;-1.30;100.00
59767;BME280;46248;58.364;25.582;2023-03-04T04:51:18;97809.56;;;-1.31;100.00
59767;BME280;46248;58.364;25.582;2023-03-04T04:54:45;97814.66;;;-1.30;100.00
59767;BME280;46248;58.364;25.582;2023-03-04T04:58:11;97806.97;;;-1.30;100.00
59767;BME280;46248;58.364;25.582;2023-03-04T05:01:36;97815.47;;;-1.29;100.00
59767;BME280;46248;58.364;25.582;2023-03-04T05:05:03;97806.19;;;-1.32;100.00
59767;BME280;46248;58.364;25.582;2023-03-04T05:08:29;97799.59;;;-1.38;100.00
59767;BME280;46248;58.364;25.582;2023-03-04T05:11:58;97799.75;;;-1.41;100.00
59767;BME280;46248;58.364;25.582;2023-03-04T05:15:25;97803.97;;;-1.40;100.00
59767;BME280;46248;58.364;25.582;2023-03-04T05:18:53;97802.09;;;-1.36;100.00
59767;BME280;46248;58.364;25.582;2023-03-04T05:22:19;97767.16;;;-1.57;100.00
59767;BME280;46248;58.364;25.582;2023-03-04T05:25:44;97800.72;;;-1.43;100.00
59767;BME280;46248;58.364;25.582;2023-03-04T05:29:09;97796.41;;;-1.43;100.00
59767;BME280;46248;58.364;25.582;2023-03-04T05:32:35;97798.00;;;-1.40;100.00
59767;BME280;46248;58.364;25.582;2023-03-04T05:36:03;97783.03;;;-1.49;100.00
59767;BME280;46248;58.364;25.582;2023-03-04T05:39:28;97785.41;;;-1.45;100.00
59767;BME280;46248;58.364;25.582;2023-03-04T05:42:54;97804.69;;;-1.36;100.00
59767;BME280;46248;58.364;25.582;2023-03-04T05:46:21;97814.03;;;-1.35;100.00
59767;BME280;46248;58.364;25.582;2023-03-04T05:49:47;97813.13;;;-1.34;100.00
59767;BME280;46248;58.364;25.582;2023-03-04T05:53:15;97807.09;;;-1.33;100.00
59767;BME280;46248;58.364;25.582;2023-03-04T05:56:40;97804.59;;;-1.34;100.00
59767;BME280;46248;58.364;25.582;2023-03-04T06:00:09;97818.19;;;-1.32;100.00
59767;BME280;46248;58.364;25.582;2023-03-04T06:03:35;97811.22;;;-1.30;100.00
59767;BME280;46248;58.364;25.582;2023-03-04T06:07:00;97820.63;;;-1.29;100.00
59767;BME280;46248;58.364;25.582;2023-03-04T06:10:26;97817.09;;;-1.27;100.00
59767;BME280;46248;58.364;25.582;2023-03-04T06:13:52;97821.22;;;-1.24;100.00
59767;BME280;46248;58.364;25.582;2023-03-04T06:17:18;97813.50;;;-1.24;100.00
59767;BME280;46248;58.364;25.582;2023-03-04T06:20:45;97823.50;;;-1.18;100.00
59767;BME280;46248;58.364;25.582;2023-03-04T06:24:11;97814.38;;;-1.24;100.00
59767;BME280;46248;58.364;25.582;2023-03-04T06:27:40;97824.88;;;-1.11;100.00
59767;BME280;46248;58.364;25.582;2023-03-04T06:31:06;97830.66;;;-1.06;100.00
59767;BME280;46248;58.364;25.582;2023-03-04T06:34:33;97833.66;;;-0.98;100.00
59767;BME280;46248;58.364;25.582;2023-03-04T06:37:59;97815.84;;;-1.01;100.00
59767;BME280;46248;58.364;25.582;2023-03-04T06:41:28;97831.44;;;-0.86;100.00
59767;BME280;46248;58.364;25.582;2023-03-04T06:44:55;97843.75;;;-0.76;100.00
59767;BME280;46248;58.364;25.582;2023-03-04T06:48:20;97840.03;;;-0.70;100.00
59767;BME280;46248;58.364;25.582;2023-03-04T06:51:46;97844.44;;;-0.72;100.00
59767;BME280;46248;58.364;25.582;2023-03-04T06:55:10;97830.22;;;-0.79;100.00
59767;BME280;46248;58.364;25.582;2023-03-04T06:58:36;97827.66;;;-0.79;100.00
59767;BME280;46248;58.364;25.582;2023-03-04T07:02:02;97843.53;;;-0.71;100.00
59767;BME280;46248;58.364;25.582;2023-03-04T07:05:28;97840.03;;;-0.70;100.00
59767;BME280;46248;58.364;25.582;2023-03-04T07:08:53;97833.25;;;-0.71;100.00
59767;BME280;46248;58.364;25.582;2023-03-04T07:12:19;97816.06;;;-0.88;100.00
59767;BME280;46248;58.364;25.582;2023-03-04T07:15:44;97837.47;;;-0.70;100.00
59767;BME280;46248;58.364;25.582;2023-03-04T07:19:11;97841.59;;;-0.66;100.00
59767;BME280;46248;58.364;25.582;2023-03-04T07:22:36;97847.00;;;-0.55;100.00
59767;BME280;46248;58.364;25.582;2023-03-04T07:26:01;97850.81;;;-0.44;100.00
59767;BME280;46248;58.364;25.582;2023-03-04T07:29:28;97867.13;;;-0.28;100.00
59767;BME280;46248;58.364;25.582;2023-03-04T07:32:56;97850.56;;;-0.22;100.00
59767;BME280;46248;58.364;25.582;2023-03-04T07:36:25;97861.66;;;-0.05;100.00
59767;BME280;46248;58.364;25.582;2023-03-04T07:39:51;97854.56;;;0.01;100.00
59767;BME280;46248;58.364;25.582;2023-03-04T07:43:18;97867.94;;;0.07;100.00
59767;BME280;46248;58.364;25.582;2023-03-04T07:46:43;97855.75;;;-0.07;100.00
59767;BME280;46248;58.364;25.582;2023-03-04T07:50:11;97874.16;;;0.03;99.98
59767;BME280;46248;58.364;25.582;2023-03-04T07:53:42;97872.81;;;0.12;100.00
59767;BME280;46248;58.364;25.582;2023-03-04T07:57:09;97877.16;;;0.11;100.00
59767;BME280;46248;58.364;25.582;2023-03-04T08:00:34;97872.41;;;0.04;100.00
59767;BME280;46248;58.364;25.582;2023-03-04T08:04:01;97886.41;;;-0.02;100.00
59767;BME280;46248;58.364;25.582;2023-03-04T08:07:26;97887.44;;;-0.06;100.00
59767;BME280;46248;58.364;25.582;2023-03-04T08:10:54;97882.47;;;-0.09;100.00
59767;BME280;46248;58.364;25.582;2023-03-04T08:14:22;97888.16;;;-0.03;100.00
59767;BME280;46248;58.364;25.582;2023-03-04T08:17:49;97885.50;;;-0.01;100.00
59767;BME280;46248;58.364;25.582;2023-03-04T08:21:17;97890.84;;;0.12;100.00
59767;BME280;46248;58.364;25.582;2023-03-04T08:24:44;97898.69;;;0.26;100.00
59767;BME280;46248;58.364;25.582;2023-03-04T08:28:13;97892.94;;;0.54;100.00
59767;BME280;46248;58.364;25.582;2023-03-04T08:31:40;97904.59;;;0.77;100.00
59767;BME280;46248;58.364;25.582;2023-03-04T08:35:10;97902.47;;;1.01;97.70
59767;BME280;46248;58.364;25.582;2023-03-04T08:38:35;97902.94;;;1.08;97.39
59767;BME280;46248;58.364;25.582;2023-03-04T08:42:02;97914.59;;;1.15;96.29
59767;BME280;46248;58.364;25.582;2023-03-04T08:45:31;97920.22;;;1.06;97.21
59767;BME280;46248;58.364;25.582;2023-03-04T08:48:58;97930.72;;;1.03;99.00
59767;BME280;46248;58.364;25.582;2023-03-04T08:52:23;97925.00;;;0.98;98.69
59767;BME280;46248;58.364;25.582;2023-03-04T08:55:50;97942.03;;;1.00;97.94
59767;BME280;46248;58.364;25.582;2023-03-04T08:59:16;97940.44;;;0.98;96.68
59767;BME280;46248;58.364;25.582;2023-03-04T09:02:45;97935.78;;;0.88;96.35
59767;BME280;46248;58.364;25.582;2023-03-04T09:06:13;97955.31;;;0.93;97.07
59767;BME280;46248;58.364;25.582;2023-03-04T09:09:38;97944.84;;;0.80;97.58
59767;BME280;46248;58.364;25.582;2023-03-04T09:13:03;97961.94;;;0.81;98.20
59767;BME280;46248;58.364;25.582;2023-03-04T09:16:29;97965.66;;;0.75;95.36
59767;BME280;46248;58.364;25.582;2023-03-04T09:19:58;97967.06;;;0.65;96.25
59767;BME280;46248;58.364;25.582;2023-03-04T09:23:25;97963.16;;;0.58;97.19
59767;BME280;46248;58.364;25.582;2023-03-04T09:26:50;97968.88;;;0.63;97.90
59767;BME280;46248;58.364;25.582;2023-03-04T09:30:17;97969.03;;;0.60;97.26
59767;BME280;46248;58.364;25.582;2023-03-04T09:33:42;97980.31;;;0.57;97.20
59767;BME280;46248;58.364;25.582;2023-03-04T09:37:10;97969.16;;;0.41;97.02
59767;BME280;46248;58.364;25.582;2023-03-04T09:40:39;97984.16;;;0.66;97.21
59767;BME280;46248;58.364;25.582;2023-03-04T09:44:11;97991.19;;;0.80;96.26
59767;BME280;46248;58.364;25.582;2023-03-04T09:47:40;97979.06;;;0.82;94.03
59767;BME280;46248;58.364;25.582;2023-03-04T09:51:18;97997.47;;;0.91;94.07
59767;BME280;46248;58.364;25.582;2023-03-04T09:55:02;97992.88;;;0.97;93.86
59767;BME280;46248;58.364;25.582;2023-03-04T09:58:43;97996.81;;;1.04;93.11
59767;BME280;46248;58.364;25.582;2023-03-04T10:02:22;98007.53;;;1.12;91.22
59767;BME280;46248;58.364;25.582;2023-03-04T10:05:53;98005.09;;;1.09;91.75
59767;BME280;46248;58.364;25.582;2023-03-04T10:09:23;98010.69;;;1.01;93.79
59767;BME280;46248;58.364;25.582;2023-03-04T10:12:54;98009.91;;;0.99;93.85
59767;BME280;46248;58.364;25.582;2023-03-04T10:16:23;98021.97;;;0.99;92.13
59767;BME280;46248;58.364;25.582;2023-03-04T10:19:55;98022.22;;;0.94;92.19
59767;BME280;46248;58.364;25.582;2023-03-04T10:23:25;98024.81;;;0.94;93.26
59767;BME280;46248;58.364;25.582;2023-03-04T10:26:54;98020.81;;;0.88;92.73
59767;BME280;46248;58.364;25.582;2023-03-04T10:30:35;98027.53;;;0.91;92.25
59767;BME280;46248;58.364;25.582;2023-03-04T10:34:01;98015.47;;;0.76;91.86
59767;BME280;46248;58.364;25.582;2023-03-04T10:37:42;98021.84;;;0.84;93.55
59767;BME280;46248;58.364;25.582;2023-03-04T10:41:14;98017.59;;;1.01;94.73
59767;BME280;46248;58.364;25.582;2023-03-04T10:44:43;98034.56;;;1.21;92.90
59767;BME280;46248;58.364;25.582;2023-03-04T10:48:24;98037.34;;;1.33;89.18
59767;BME280;46248;58.364;25.582;2023-03-04T10:51:54;98042.00;;;1.43;90.86
59767;BME280;46248;58.364;25.582;2023-03-04T10:55:28;98040.59;;;1.53;92.05
59767;BME280;46248;58.364;25.582;2023-03-04T10:59:30;98046.16;;;1.61;89.20
59767;BME280;46248;58.364;25.582;2023-03-04T11:03:28;98038.47;;;1.75;87.53
59767;BME280;46248;58.364;25.582;2023-03-04T11:06:55;98043.41;;;1.80;88.91
59767;BME280;46248;58.364;25.582;2023-03-04T11:10:22;98047.06;;;1.60;89.42
59767;BME280;46248;58.364;25.582;2023-03-04T11:13:52;98047.91;;;1.45;88.79
59767;BME280;46248;58.364;25.582;2023-03-04T11:17:24;98045.47;;;1.42;88.82
59767;BME280;46248;58.364;25.582;2023-03-04T11:20:52;98048.97;;;1.41;90.75
59767;BME280;46248;58.364;25.582;2023-03-04T11:24:22;98048.56;;;1.48;89.85
59767;BME280;46248;58.364;25.582;2023-03-04T11:27:53;98047.72;;;1.48;90.91
59767;BME280;46248;58.364;25.582;2023-03-04T11:31:24;98054.31;;;1.37;90.30
59767;BME280;46248;58.364;25.582;2023-03-04T11:34:53;98050.41;;;1.30;91.34
59767;BME280;46248;58.364;25.582;2023-03-04T11:38:25;98062.34;;;1.16;93.58
59767;BME280;46248;58.364;25.582;2023-03-04T11:41:57;98063.66;;;1.07;95.21
59767;BME280;46248;58.364;25.582;2023-03-04T11:45:34;98074.75;;;0.91;96.83
59767;BME280;46248;58.364;25.582;2023-03-04T11:49:18;98073.53;;;0.81;97.96
59767;BME280;46248;58.364;25.582;2023-03-04T11:53:02;98077.28;;;0.76;98.71
59767;BME280;46248;58.364;25.582;2023-03-04T11:56:40;98060.09;;;0.59;98.29
59767;BME280;46248;58.364;25.582;2023-03-04T12:00:24;98103.84;;;0.59;96.99
59767;BME280;46248;58.364;25.582;2023-03-04T12:11:57;98102.34;;;0.37;96.94
59767;BME280;46248;58.364;25.582;2023-03-04T12:15:29;98119.13;;;0.44;96.11
59767;BME280;46248;58.364;25.582;2023-03-04T12:19:11;98127.84;;;0.42;96.48
59767;BME280;46248;58.364;25.582;2023-03-04T12:22:44;98119.06;;;0.29;95.78
59767;BME280;46248;58.364;25.582;2023-03-04T12:26:22;98125.56;;;0.18;96.20
59767;BME280;46248;58.364;25.582;2023-03-04T12:29:56;98146.44;;;0.12;96.64
59767;BME280;46248;58.364;25.582;2023-03-04T12:33:35;98146.72;;;0.06;96.32
59767;BME280;46248;58.364;25.582;2023-03-04T12:37:26;98157.16;;;0.03;96.45
59767;BME280;46248;58.364;25.582;2023-03-04T12:41:05;98155.59;;;-0.01;97.69
59767;BME280;46248;58.364;25.582;2023-03-04T12:44:43;98156.81;;;-0.08;96.15
59767;BME280;46248;58.364;25.582;2023-03-04T12:48:18;98148.69;;;-0.18;97.58
59767;BME280;46248;58.364;25.582;2023-03-04T12:51:56;98183.41;;;-0.09;97.68
59767;BME280;46248;58.364;25.582;2023-03-04T12:55:31;98166.88;;;-0.22;98.24
59767;BME280;46248;58.364;25.582;2023-03-04T12:59:00;98181.91;;;-0.13;99.24
59767;BME280;46248;58.364;25.582;2023-03-04T13:02:43;98179.53;;;-0.18;99.21
59767;BME280;46248;58.364;25.582;2023-03-04T13:06:34;98185.84;;;-0.25;99.26
59767;BME280;46248;58.364;25.582;2023-03-04T13:10:09;98203.16;;;-0.29;99.30
59767;BME280;46248;58.364;25.582;2023-03-04T13:13:37;98207.47;;;-0.29;99.63
59767;BME280;46248;58.364;25.582;2023-03-04T13:21:19;98195.28;;;-0.44;100.00
59767;BME280;46248;58.364;25.582;2023-03-04T13:24:51;98221.56;;;-0.38;100.00
59767;BME280;46248;58.364;25.582;2023-03-04T13:28:26;98216.25;;;-0.54;100.00
59767;BME280;46248;58.364;25.582;2023-03-04T13:31:58;98234.94;;;-0.50;98.92
59767;BME280;46248;58.364;25.582;2023-03-04T13:35:56;98242.00;;;-0.55;99.71
59767;BME280;46248;58.364;25.582;2023-03-04T13:39:27;98245.50;;;-0.56;99.80
59767;BME280;46248;58.364;25.582;2023-03-04T13:42:52;98256.59;;;-0.56;100.00
59767;BME280;46248;58.364;25.582;2023-03-04T13:46:40;98268.53;;;-0.55;99.95
59767;BME280;46248;58.364;25.582;2023-03-04T13:50:26;98270.75;;;-0.66;99.84
59767;BME280;46248;58.364;25.582;2023-03-04T13:53:52;98273.88;;;-0.59;100.00
59767;BME280;46248;58.364;25.582;2023-03-04T13:57:19;98291.09;;;-0.61;100.00
59767;BME280;46248;58.364;25.582;2023-03-04T14:00:48;98294.75;;;-0.67;100.00
59767;BME280;46248;58.364;25.582;2023-03-04T14:04:15;98300.81;;;-0.68;100.00
59767;BME280;46248;58.364;25.582;2023-03-04T14:07:38;98300.09;;;-0.72;100.00
59767;BME280;46248;58.364;25.582;2023-03-04T14:11:01;98310.56;;;-0.76;100.00
59767;BME280;46248;58.364;25.582;2023-03-04T14:14:26;98311.50;;;-0.79;100.00
59767;BME280;46248;58.364;25.582;2023-03-04T14:17:53;98330.41;;;-0.80;100.00
59767;BME280;46248;58.364;25.582;2023-03-04T14:21:16;98327.78;;;-0.78;100.00
59767;BME280;46248;58.364;25.582;2023-03-04T14:24:40;98333.75;;;-0.78;100.00
59767;BME280;46248;58.364;25.582;2023-03-04T14:28:05;98330.22;;;-0.75;100.00
59767;BME280;46248;58.364;25.582;2023-03-04T14:31:34;98333.44;;;-0.70;100.00
59767;BME280;46248;58.364;25.582;2023-03-04T14:35:02;98338.66;;;-0.72;100.00
59767;BME280;46248;58.364;25.582;2023-03-04T14:38:29;98343.78;;;-0.72;100.00
59767;BME280;46248;58.364;25.582;2023-03-04T14:41:55;98357.53;;;-0.73;100.00
59767;BME280;46248;58.364;25.582;2023-03-04T14:45:21;98366.00;;;-0.71;100.00
59767;BME280;46248;58.364;25.582;2023-03-04T14:48:49;98363.50;;;-0.72;100.00
59767;BME280;46248;58.364;25.582;2023-03-04T14:52:31;98375.47;;;-0.71;100.00
59767;BME280;46248;58.364;25.582;2023-03-04T14:55:58;98377.47;;;-0.79;100.00
59767;BME280;46248;58.364;25.582;2023-03-04T14:59:32;98393.56;;;-0.74;100.00
59767;BME280;46248;58.364;25.582;2023-03-04T15:02:58;98401.28;;;-0.74;100.00
59767;BME280;46248;58.364;25.582;2023-03-04T15:06:23;98403.88;;;-0.76;100.00
59767;BME280;46248;58.364;25.582;2023-03-04T15:09:53;98406.66;;;-0.80;100.00
59767;BME280;46248;58.364;25.582;2023-03-04T15:13:36;98423.63;;;-0.76;100.00
59767;BME280;46248;58.364;25.582;2023-03-04T15:16:59;98422.75;;;-0.75;100.00
59767;BME280;46248;58.364;25.582;2023-03-04T15:20:25;98445.13;;;-0.79;100.00
59767;BME280;46248;58.364;25.582;2023-03-04T15:23:48;98432.63;;;-0.88;100.00
59767;BME280;46248;58.364;25.582;2023-03-04T15:27:14;98459.78;;;-0.81;100.00
59767;BME280;46248;58.364;25.582;2023-03-04T15:30:38;98463.22;;;-0.82;100.00
59767;BME280;46248;58.364;25.582;2023-03-04T15:34:02;98465.19;;;-0.88;100.00
59767;BME280;46248;58.364;25.582;2023-03-04T15:37:27;98472.06;;;-0.89;100.00
59767;BME280;46248;58.364;25.582;2023-03-04T15:40:53;98477.16;;;-0.87;100.00
59767;BME280;46248;58.364;25.582;2023-03-04T15:44:21;98483.97;;;-0.86;100.00
59767;BME280;46248;58.364;25.582;2023-03-04T15:47:46;98491.84;;;-0.91;100.00
59767;BME280;46248;58.364;25.582;2023-03-04T15:51:13;98491.84;;;-0.91;100.00
59767;BME280;46248;58.364;25.582;2023-03-04T15:54:36;98495.28;;;-0.90;100.00
59767;BME280;46248;58.364;25.582;2023-03-04T15:58:00;98507.31;;;-0.93;100.00
59767;BME280;46248;58.364;25.582;2023-03-04T16:01:26;98504.03;;;-0.96;100.00
59767;BME280;46248;58.364;25.582;2023-03-04T16:04:50;98508.38;;;-0.98;100.00
59767;BME280;46248;58.364;25.582;2023-03-04T16:08:16;98522.03;;;-0.96;100.00
59767;BME280;46248;58.364;25.582;2023-03-04T16:11:42;98525.41;;;-0.96;100.00
59767;BME280;46248;58.364;25.582;2023-03-04T16:15:13;98525.53;;;-0.99;100.00
59767;BME280;46248;58.364;25.582;2023-03-04T16:18:39;98521.56;;;-1.07;100.00
59767;BME280;46248;58.364;25.582;2023-03-04T16:22:05;98522.47;;;-1.08;100.00
59767;BME280;46248;58.364;25.582;2023-03-04T16:25:31;98546.34;;;-1.06;100.00
59767;BME280;46248;58.364;25.582;2023-03-04T16:28:54;98545.59;;;-1.08;100.00
59767;BME280;46248;58.364;25.582;2023-03-04T16:32:23;98558.34;;;-1.07;100.00
59767;BME280;46248;58.364;25.582;2023-03-04T16:35:50;98562.72;;;-1.09;100.00
59767;BME280;46248;58.364;25.582;2023-03-04T16:39:20;98561.97;;;-1.12;100.00
59767;BME280;46248;58.364;25.582;2023-03-04T16:42:48;98577.22;;;-1.08;100.00
59767;BME280;46248;58.364;25.582;2023-03-04T16:46:13;98578.13;;;-1.09;100.00
59767;BME280;46248;58.364;25.582;2023-03-04T16:49:36;98579.06;;;-1.11;100.00
59767;BME280;46248;58.364;25.582;2023-03-04T16:53:02;98579.28;;;-1.18;100.00
59767;BME280;46248;58.364;25.582;2023-03-04T16:56:27;98594.59;;;-1.14;100.00
59767;BME280;46248;58.364;25.582;2023-03-04T16:59:52;98598.97;;;-1.18;100.00
59767;BME280;46248;58.364;25.582;2023-03-04T17:03:17;98596.56;;;-1.23;100.00
59767;BME280;46248;58.364;25.582;2023-03-04T17:06:40;98605.00;;;-1.19;100.00
59767;BME280;46248;58.364;25.582;2023-03-04T17:10:06;98578.44;;;-1.43;100.00
59767;BME280;46248;58.364;25.582;2023-03-04T17:13:29;98617.03;;;-1.21;100.00
59767;BME280;46248;58.364;25.582;2023-03-04T17:16:52;98622.34;;;-1.26;100.00
59767;BME280;46248;58.364;25.582;2023-03-04T17:20:17;98630.91;;;-1.25;100.00
59767;BME280;46248;58.364;25.582;2023-03-04T17:23:42;98631.72;;;-1.25;100.00
59767;BME280;46248;58.364;25.582;2023-03-04T17:27:06;98650.53;;;-1.24;100.00
59767;BME280;46248;58.364;25.582;2023-03-04T17:30:30;98634.41;;;-1.28;100.00
59767;BME280;46248;58.364;25.582;2023-03-04T17:33:54;98651.34;;;-1.22;100.00
59767;BME280;46248;58.364;25.582;2023-03-04T17:37:17;98649.69;;;-1.25;100.00
59767;BME280;46248;58.364;25.582;2023-03-04T17:40:43;98648.75;;;-1.22;100.00
59767;BME280;46248;58.364;25.582;2023-03-04T17:44:09;98651.41;;;-1.24;100.00
59767;BME280;46248;58.364;25.582;2023-03-04T17:47:35;98653.16;;;-1.26;100.00
59767;BME280;46248;58.364;25.582;2023-03-04T17:51:00;98660.97;;;-1.29;100.00
59767;BME280;46248;58.364;25.582;2023-03-04T17:54:23;98661.09;;;-1.33;100.00
59767;BME280;46248;58.364;25.582;2023-03-04T17:57:46;98670.66;;;-1.37;99.59
59767;BME280;46248;58.364;25.582;2023-03-04T18:01:17;98669.88;;;-1.39;99.75
59767;BME280;46248;58.364;25.582;2023-03-04T18:04:43;98658.22;;;-1.49;99.85
59767;BME280;46248;58.364;25.582;2023-03-04T18:08:08;98679.38;;;-1.43;100.00
59767;BME280;46248;58.364;25.582;2023-03-04T18:11:32;98682.00;;;-1.44;100.00
59767;BME280;46248;58.364;25.582;2023-03-04T18:14:56;98687.16;;;-1.44;100.00